createdAt,value
2023-03-26T00:01:37.307Z,2.10
2023-03-26T00:04:29.919Z,1.90
2023-03-26T00:07:12.612Z,2.00
2023-03-26T00:10:04.864Z,2.00
2023-03-26T00:12:56.921Z,2.10
2023-03-26T00:15:38.922Z,2.10
2023-03-26T00:18:31.583Z,2.00
2023-03-26T00:21:08.830Z,1.90
2023-03-26T00:24:04.504Z,2.50
2023-03-26T00:26:56.657Z,2.00
2023-03-26T00:29:49.244Z,2.20
2023-03-26T00:32:41.352Z,1.60
2023-03-26T00:35:34.769Z,1.50
2023-03-26T00:38:28.383Z,1.60
2023-03-26T00:41:26.138Z,1.50
2023-03-26T00:44:18.448Z,1.50
2023-03-26T00:47:10.408Z,1.40
2023-03-26T00:50:04.073Z,1.30
2023-03-26T00:52:56.016Z,1.50
2023-03-26T00:55:38.608Z,1.10
2023-03-26T00:58:22.286Z,1.20
2023-03-26T01:00:59.607Z,1.10
2023-03-26T01:03:36.680Z,1.40
2023-03-26T01:06:15.807Z,1.20
2023-03-26T01:09:17.002Z,1.30
2023-03-26T01:12:12.714Z,1.30
2023-03-26T01:17:58.052Z,1.50
2023-03-26T01:20:52.431Z,1.30
2023-03-26T01:23:49.039Z,1.70
2023-03-26T01:26:46.084Z,1.70
2023-03-26T01:29:46.440Z,1.80
2023-03-26T01:32:28.979Z,2.00
2023-03-26T01:35:30.607Z,2.80
2023-03-26T01:38:32.270Z,2.70
2023-03-26T01:41:31.665Z,2.60
2023-03-26T01:44:31.739Z,2.50
2023-03-26T01:47:24.454Z,2.40
2023-03-26T01:50:09.770Z,2.40
2023-03-26T01:52:44.332Z,2.60
2023-03-26T01:55:49.500Z,2.60
2023-03-26T01:58:51.478Z,3.10
2023-03-26T02:04:44.992Z,1.50
2023-03-26T02:07:44.673Z,1.20
2023-03-26T02:10:45.132Z,1.20
2023-03-26T02:13:37.732Z,1.10
2023-03-26T02:16:29.703Z,1.00
2023-03-26T02:19:04.436Z,1.10
2023-03-26T02:21:59.803Z,1.40
2023-03-26T02:24:41.154Z,1.20
2023-03-26T02:27:18.624Z,1.40
2023-03-26T02:30:13.790Z,1.30
2023-03-26T02:33:06.395Z,1.50
2023-03-26T02:36:01.928Z,1.20
2023-03-26T02:38:54.245Z,1.20
2023-03-26T02:41:46.266Z,1.60
2023-03-26T02:44:40.125Z,1.90
2023-03-26T02:47:15.300Z,1.60
2023-03-26T02:50:08.946Z,1.60
2023-03-26T02:53:01.613Z,1.40
2023-03-26T02:55:53.864Z,1.50
2023-03-26T02:58:46.910Z,1.70
2023-03-26T03:01:42.829Z,1.50
2023-03-26T03:04:34.956Z,1.10
2023-03-26T03:07:27.023Z,1.30
2023-03-26T03:10:21.926Z,1.50
2023-03-26T03:13:15.000Z,1.60
2023-03-26T03:16:08.084Z,2.00
2023-03-26T03:19:01.786Z,1.60
2023-03-26T03:21:53.799Z,1.90
2023-03-26T03:24:45.815Z,1.70
2023-03-26T03:27:39.553Z,2.50
2023-03-26T03:30:31.598Z,2.00
2023-03-26T03:33:23.569Z,2.40
2023-03-26T03:35:59.348Z,2.20
2023-03-26T03:38:52.130Z,1.80
2023-03-26T03:41:33.363Z,2.40
2023-03-26T03:44:25.446Z,2.30
2023-03-26T03:47:17.449Z,2.10
2023-03-26T03:50:11.844Z,1.90
2023-03-26T03:53:05.675Z,2.30
2023-03-26T03:55:58.772Z,2.40
2023-03-26T03:58:51.607Z,2.10
2023-03-26T04:01:46.815Z,2.20
2023-03-26T04:04:40.137Z,1.80
2023-03-26T04:07:22.360Z,1.60
2023-03-26T04:10:09.595Z,1.30
2023-03-26T04:13:01.597Z,1.40
2023-03-26T04:15:36.224Z,1.80
2023-03-26T04:18:10.580Z,1.70
2023-03-26T04:21:03.340Z,1.70
2023-03-26T04:23:55.376Z,1.80
2023-03-26T04:26:48.095Z,1.80
2023-03-26T04:29:43.094Z,1.10
2023-03-26T04:32:24.668Z,1.30
2023-03-26T04:35:19.464Z,1.30
2023-03-26T04:38:16.768Z,1.50
2023-03-26T04:41:11.356Z,1.20
2023-03-26T04:43:51.940Z,1.80
2023-03-26T04:46:45.205Z,1.40
2023-03-26T04:49:28.770Z,1.40
2023-03-26T04:52:00.811Z,1.50
2023-03-26T04:54:35.223Z,1.40
2023-03-26T04:57:32.628Z,1.70
2023-03-26T05:00:25.460Z,1.40
2023-03-26T05:03:17.664Z,1.50
2023-03-26T05:06:11.594Z,1.50
2023-03-26T05:09:03.881Z,1.20
2023-03-26T05:11:56.613Z,1.20
2023-03-26T05:14:33.582Z,1.20
2023-03-26T05:17:26.420Z,1.50
2023-03-26T05:20:24.860Z,1.30
2023-03-26T05:23:16.856Z,1.30
2023-03-26T05:25:54.010Z,1.60
2023-03-26T05:28:45.995Z,1.30
2023-03-26T05:31:27.950Z,1.20
2023-03-26T05:34:20.606Z,1.60
2023-03-26T05:37:13.726Z,1.20
2023-03-26T05:39:55.856Z,2.10
2023-03-26T05:42:48.272Z,1.40
2023-03-26T05:45:40.285Z,1.70
2023-03-26T05:48:21.612Z,1.30
2023-03-26T05:51:02.672Z,1.60
2023-03-26T05:53:54.706Z,1.50
2023-03-26T05:56:46.959Z,1.20
2023-03-26T05:59:38.997Z,1.20
2023-03-26T06:02:31.659Z,1.40
2023-03-26T06:05:26.327Z,1.40
2023-03-26T06:08:19.393Z,1.30
2023-03-26T06:11:04.966Z,1.30
2023-03-26T06:13:39.554Z,1.30
2023-03-26T06:16:31.615Z,1.20
2023-03-26T06:19:23.662Z,1.20
2023-03-26T06:22:15.566Z,1.20
2023-03-26T06:25:08.889Z,1.20
2023-03-26T06:28:00.922Z,0.90
2023-03-26T06:30:53.880Z,1.10
2023-03-26T06:33:46.093Z,1.20
2023-03-26T06:36:20.854Z,1.10
2023-03-26T06:39:12.854Z,1.00
2023-03-26T06:42:05.008Z,1.30
2023-03-26T06:44:56.996Z,1.30
2023-03-26T06:47:49.035Z,1.20
2023-03-26T06:50:41.006Z,1.10
2023-03-26T06:53:32.942Z,0.80
2023-03-26T06:56:24.901Z,1.10
2023-03-26T06:59:16.876Z,0.80
2023-03-26T07:02:09.106Z,0.90
2023-03-26T07:04:51.453Z,1.00
2023-03-26T07:07:46.397Z,1.20
2023-03-26T07:13:29.603Z,1.00
2023-03-26T07:16:22.445Z,1.00
2023-03-26T07:19:14.458Z,1.40
2023-03-26T07:22:07.461Z,1.40
2023-03-26T07:25:01.175Z,1.60
2023-03-26T07:27:45.452Z,1.70
2023-03-26T07:30:28.192Z,1.00
2023-03-26T07:33:29.004Z,1.30
2023-03-26T07:36:30.013Z,1.30
2023-03-26T07:39:37.904Z,1.40
2023-03-26T07:42:43.016Z,1.20
2023-03-26T07:45:33.845Z,1.10
2023-03-26T07:48:29.633Z,1.20
2023-03-26T07:51:22.638Z,1.40
2023-03-26T07:54:16.301Z,1.70
2023-03-26T07:57:05.927Z,1.40
2023-03-26T07:59:54.404Z,1.30
2023-03-26T08:03:00.064Z,1.40
2023-03-26T08:06:00.709Z,1.30
2023-03-26T08:09:01.192Z,1.20
2023-03-26T08:11:59.134Z,1.40
2023-03-26T08:14:48.971Z,1.20
2023-03-26T08:17:47.028Z,1.40
2023-03-26T08:20:44.354Z,1.30
2023-03-26T08:23:50.942Z,1.10
2023-03-26T08:26:49.032Z,1.20
2023-03-26T08:29:49.999Z,1.10
2023-03-26T08:32:43.089Z,1.20
2023-03-26T08:35:35.551Z,1.40
2023-03-26T08:38:27.756Z,1.40
2023-03-26T08:41:50.627Z,1.20
2023-03-26T08:45:08.026Z,1.30
2023-03-26T08:48:38.756Z,1.90
2023-03-26T08:51:56.638Z,1.80
2023-03-26T08:55:11.714Z,1.30
2023-03-26T08:58:37.352Z,1.50
2023-03-26T09:01:40.792Z,1.30
2023-03-26T09:04:53.060Z,1.20
2023-03-26T09:08:12.153Z,0.90
2023-03-26T09:11:25.919Z,1.00
2023-03-26T09:14:56.230Z,0.80
2023-03-26T09:18:21.140Z,1.20
2023-03-26T09:21:25.566Z,1.20
2023-03-26T09:24:38.409Z,1.00
2023-03-26T09:27:35.229Z,0.80
2023-03-26T09:31:18.085Z,0.90
2023-03-26T09:34:29.950Z,0.90
2023-03-26T09:37:35.814Z,0.90
2023-03-26T09:40:54.745Z,1.00
2023-03-26T09:44:23.781Z,0.90
2023-03-26T09:47:48.417Z,1.00
2023-03-26T09:50:57.464Z,1.20
2023-03-26T09:54:02.575Z,1.30
2023-03-26T09:56:45.328Z,0.80
2023-03-26T09:59:58.377Z,0.90
2023-03-26T10:03:22.180Z,0.90
2023-03-26T10:06:27.896Z,1.10
2023-03-26T10:09:39.338Z,1.20
2023-03-26T10:12:23.494Z,1.30
2023-03-26T10:18:26.993Z,1.90
2023-03-26T10:21:16.785Z,2.10
2023-03-26T10:24:18.085Z,2.60
2023-03-26T10:27:24.305Z,1.40
2023-03-26T10:30:29.492Z,1.30
2023-03-26T10:33:25.097Z,1.40
2023-03-26T10:36:32.098Z,1.50
2023-03-26T10:39:36.826Z,1.50
2023-03-26T10:42:43.082Z,2.00
2023-03-26T10:45:52.465Z,1.20
2023-03-26T10:49:07.428Z,1.30
2023-03-26T10:52:03.389Z,1.50
2023-03-26T10:54:49.502Z,2.00
2023-03-26T10:57:42.266Z,1.70
2023-03-26T11:00:26.068Z,1.40
2023-03-26T11:03:21.602Z,1.50
2023-03-26T11:06:27.710Z,1.90
2023-03-26T11:09:31.754Z,1.00
2023-03-26T11:12:30.142Z,1.40
2023-03-26T11:15:18.873Z,2.00
2023-03-26T11:18:20.055Z,1.70
2023-03-26T11:21:18.668Z,2.40
2023-03-26T11:24:33.494Z,1.20
2023-03-26T11:27:15.286Z,0.90
2023-03-26T11:30:22.445Z,1.00
2023-03-26T11:33:19.348Z,1.10
2023-03-26T11:36:16.836Z,1.20
2023-03-26T11:39:15.443Z,1.20
2023-03-26T11:42:11.202Z,1.10
2023-03-26T11:44:58.460Z,1.60
2023-03-26T11:47:54.112Z,1.70
2023-03-26T11:50:42.904Z,1.20
2023-03-26T11:53:38.742Z,1.00
2023-03-26T11:56:35.918Z,1.20
2023-03-26T11:59:29.736Z,1.50
2023-03-26T12:02:32.771Z,1.90
2023-03-26T12:05:27.522Z,1.70
2023-03-26T12:08:18.787Z,1.20
2023-03-26T12:11:14.670Z,1.30
2023-03-26T12:14:07.974Z,2.40
2023-03-26T12:17:06.085Z,2.00
2023-03-26T12:19:54.328Z,1.70
2023-03-26T12:22:36.281Z,1.40
2023-03-26T12:25:30.053Z,2.30
2023-03-26T12:28:23.353Z,1.70
2023-03-26T12:31:18.178Z,1.50
2023-03-26T12:34:19.353Z,1.90
2023-03-26T12:36:56.057Z,1.70
2023-03-26T12:40:10.169Z,2.00
2023-03-26T12:44:50.336Z,2.10
2023-03-26T12:47:26.507Z,2.50
2023-03-26T12:49:13.053Z,1.70
2023-03-26T12:52:18.658Z,1.60
2023-03-26T12:55:12.148Z,1.40
2023-03-26T12:58:19.910Z,1.60
2023-03-26T13:01:16.043Z,1.40
2023-03-26T13:04:35.204Z,1.70
2023-03-26T13:07:35.191Z,2.60
2023-03-26T13:10:49.432Z,1.90
2023-03-26T13:13:59.294Z,2.10
2023-03-26T13:16:57.226Z,1.60
2023-03-26T13:20:01.765Z,1.40
2023-03-26T13:23:08.171Z,1.20
2023-03-26T13:26:07.402Z,1.10
2023-03-26T13:28:52.615Z,1.70
2023-03-26T13:31:53.823Z,1.00
2023-03-26T13:34:45.623Z,1.20
2023-03-26T13:37:44.356Z,1.20
2023-03-26T13:40:45.988Z,1.10
2023-03-26T13:43:53.977Z,1.20
2023-03-26T13:46:51.921Z,1.20
2023-03-26T13:49:36.981Z,1.40
2023-03-26T13:52:34.609Z,1.20
2023-03-26T13:55:30.476Z,1.20
2023-03-26T13:58:34.263Z,1.30
2023-03-26T14:01:35.188Z,2.30
2023-03-26T14:04:32.611Z,2.00
2023-03-26T14:07:21.008Z,2.20
2023-03-26T14:10:18.749Z,1.90
2023-03-26T14:13:19.130Z,1.30
2023-03-26T14:16:19.176Z,1.70
2023-03-26T14:19:38.570Z,1.30
2023-03-26T14:22:40.560Z,1.90
2023-03-26T14:25:51.183Z,1.30
2023-03-26T14:29:10.613Z,1.40
2023-03-26T14:32:13.688Z,1.30
2023-03-26T14:35:23.354Z,1.30
2023-03-26T14:42:09.310Z,1.40
2023-03-26T14:45:26.257Z,1.40
2023-03-26T14:48:42.288Z,1.40
2023-03-26T14:51:26.208Z,1.40
2023-03-26T14:54:27.013Z,1.90
2023-03-26T14:57:46.674Z,1.80
2023-03-26T15:01:05.618Z,1.70
2023-03-26T15:04:35.384Z,1.80
2023-03-26T15:08:08.529Z,1.70
2023-03-26T15:11:24.456Z,1.30
2023-03-26T15:15:04.431Z,1.70
2023-03-26T15:18:29.158Z,1.50
2023-03-26T15:21:53.346Z,2.90
2023-03-26T15:25:23.137Z,2.10
2023-03-26T15:28:41.597Z,2.50
2023-03-26T15:31:48.140Z,2.40
2023-03-26T15:35:17.520Z,2.60
2023-03-26T15:38:36.122Z,2.60
2023-03-26T15:41:35.360Z,2.40
2023-03-26T15:44:50.848Z,3.00
2023-03-26T15:48:01.327Z,3.20
2023-03-26T15:50:49.261Z,4.20
2023-03-26T15:53:54.595Z,3.90
2023-03-26T15:57:07.222Z,3.50
2023-03-26T15:59:52.664Z,3.90
2023-03-26T16:02:53.706Z,4.90
2023-03-26T16:06:06.042Z,6.60
2023-03-26T16:09:12.766Z,8.00
2023-03-26T16:12:30.942Z,4.90
2023-03-26T16:15:35.166Z,5.20
2023-03-26T16:18:33.957Z,5.20
2023-03-26T16:21:54.948Z,5.80
2023-03-26T16:25:26.524Z,6.40
2023-03-26T16:28:33.542Z,9.20
2023-03-26T16:31:38.225Z,9.10
2023-03-26T16:34:40.325Z,9.40
2023-03-26T16:37:50.483Z,11.20
2023-03-26T16:41:00.403Z,12.40
2023-03-26T16:43:56.412Z,10.80
2023-03-26T16:46:42.108Z,10.40
2023-03-26T16:50:08.365Z,8.80
2023-03-26T16:53:17.092Z,8.80
2023-03-26T16:56:17.815Z,9.50
2023-03-26T16:58:58.720Z,10.30
2023-03-26T17:02:01.835Z,15.50
2023-03-26T17:04:47.489Z,12.70
2023-03-26T17:07:30.172Z,12.60
2023-03-26T17:10:33.348Z,14.90
2023-03-26T17:13:29.082Z,18.00
2023-03-26T17:16:27.673Z,17.00
2023-03-26T17:19:33.002Z,14.50
2023-03-26T17:22:36.904Z,16.40
2023-03-26T17:25:37.284Z,18.50
2023-03-26T17:28:50.385Z,19.70
2023-03-26T17:31:52.853Z,17.00
2023-03-26T17:34:46.764Z,20.80
2023-03-26T17:37:46.431Z,23.10
2023-03-26T17:40:51.572Z,24.90
2023-03-26T17:43:43.863Z,26.30
2023-03-26T17:46:37.535Z,27.20
2023-03-26T17:49:33.443Z,31.70
2023-03-26T17:52:32.382Z,28.30
2023-03-26T17:55:30.549Z,34.00
2023-03-26T17:58:28.175Z,28.80
2023-03-26T18:01:21.968Z,24.00
2023-03-26T18:03:59.984Z,24.90
2023-03-26T18:07:05.090Z,23.60
2023-03-26T18:09:58.158Z,22.50
2023-03-26T18:13:05.505Z,27.10
2023-03-26T18:15:58.335Z,29.30
2023-03-26T18:18:54.490Z,28.10
2023-03-26T18:21:50.069Z,29.60
2023-03-26T18:24:47.880Z,27.40
2023-03-26T18:27:42.333Z,25.70
2023-03-26T18:30:20.489Z,23.90
2023-03-26T18:33:16.278Z,23.30
2023-03-26T18:36:12.168Z,20.50
2023-03-26T18:38:59.066Z,21.50
2023-03-26T18:41:51.588Z,24.10
2023-03-26T18:44:43.680Z,30.40
2023-03-26T18:47:20.131Z,42.00
2023-03-26T18:50:21.474Z,29.10
2023-03-26T18:52:59.225Z,22.90
2023-03-26T18:55:52.080Z,18.90
2023-03-26T18:58:50.668Z,19.50
2023-03-26T19:01:47.284Z,19.30
2023-03-26T19:04:40.565Z,26.00
2023-03-26T19:07:32.984Z,32.70
2023-03-26T19:10:25.246Z,33.40
2023-03-26T19:13:01.985Z,156.20
2023-03-26T19:15:55.551Z,53.70
2023-03-26T19:18:30.959Z,28.30
2023-03-26T19:21:23.435Z,7.50
2023-03-26T19:23:56.263Z,7.60
2023-03-26T19:26:31.549Z,3.90
2023-03-26T19:29:16.063Z,9.60
2023-03-26T19:32:17.480Z,3.30
2023-03-26T19:34:54.558Z,8.20
2023-03-26T19:37:54.216Z,5.10
2023-03-26T19:40:34.582Z,3.30
2023-03-26T19:43:28.194Z,4.90
2023-03-26T19:46:22.459Z,2.70
2023-03-26T19:49:05.049Z,2.10
2023-03-26T19:52:08.394Z,2.80
2023-03-26T19:55:12.146Z,2.30
2023-03-26T19:58:04.263Z,2.00
2023-03-26T20:00:57.032Z,1.80
2023-03-26T20:03:43.205Z,2.00
2023-03-26T20:09:25.586Z,1.90
2023-03-26T20:12:17.574Z,2.30
2023-03-26T20:15:19.825Z,2.20
2023-03-26T20:18:01.190Z,2.60
2023-03-26T20:20:34.345Z,2.60
2023-03-26T20:23:28.822Z,3.00
2023-03-26T20:26:21.688Z,2.60
2023-03-26T20:29:14.490Z,2.90
2023-03-26T20:31:57.757Z,2.20
2023-03-26T20:34:50.187Z,1.90
2023-03-26T20:37:42.220Z,1.90
2023-03-26T20:40:34.506Z,2.30
2023-03-26T20:43:15.584Z,2.00
2023-03-26T20:46:07.935Z,2.00
2023-03-26T20:49:00.190Z,2.10
2023-03-26T20:51:41.911Z,3.20
2023-03-26T20:54:35.602Z,2.20
2023-03-26T20:57:13.440Z,2.10
2023-03-26T21:00:15.044Z,1.80
2023-03-26T21:03:07.104Z,2.10
2023-03-26T21:05:45.123Z,1.70
2023-03-26T21:08:20.335Z,2.00
2023-03-26T21:10:58.729Z,1.80
2023-03-26T21:13:46.149Z,2.40
2023-03-26T21:16:21.902Z,2.00
2023-03-26T21:18:58.909Z,2.20
2023-03-26T21:21:52.954Z,2.20
2023-03-26T21:24:39.959Z,2.50
2023-03-26T21:27:22.323Z,2.60
2023-03-26T21:30:07.736Z,2.40
2023-03-26T21:33:00.425Z,2.80
2023-03-26T21:35:53.655Z,3.00
2023-03-26T21:38:35.872Z,3.10
2023-03-26T21:41:36.633Z,3.20
2023-03-26T21:44:15.214Z,3.50
2023-03-26T21:46:58.031Z,3.30
2023-03-26T21:49:50.939Z,3.20
2023-03-26T21:52:35.884Z,2.90
2023-03-26T21:55:29.210Z,3.70
2023-03-26T21:58:36.232Z,3.40
2023-03-26T22:01:37.865Z,3.30
2023-03-26T22:04:37.415Z,4.00
2023-03-26T22:07:18.888Z,4.10
2023-03-26T22:10:01.102Z,4.30
2023-03-26T22:12:54.680Z,4.70
2023-03-26T22:15:31.855Z,5.00
2023-03-26T22:18:25.998Z,4.40
2023-03-26T22:21:18.119Z,5.00
2023-03-26T22:24:10.503Z,5.20
2023-03-26T22:26:45.044Z,4.90
2023-03-26T22:29:37.070Z,5.00
2023-03-26T22:32:32.865Z,5.30
2023-03-26T22:35:26.109Z,5.40
2023-03-26T22:38:18.157Z,5.00
2023-03-26T22:41:10.814Z,4.70
2023-03-26T22:44:16.661Z,5.50
2023-03-26T22:47:13.451Z,4.70
2023-03-26T22:50:08.076Z,4.80
2023-03-26T22:52:43.139Z,4.40
2023-03-26T22:55:35.136Z,4.40
2023-03-26T22:58:28.214Z,4.60
2023-03-26T23:01:22.838Z,4.80
2023-03-26T23:03:57.615Z,6.40
2023-03-26T23:06:34.668Z,6.20
2023-03-26T23:09:13.719Z,5.80
2023-03-26T23:12:06.702Z,5.70
2023-03-26T23:14:58.782Z,5.40
2023-03-26T23:17:54.446Z,5.30
2023-03-26T23:20:55.416Z,4.30
2023-03-26T23:23:32.135Z,5.40
2023-03-26T23:26:07.773Z,5.00
2023-03-26T23:28:59.815Z,5.10
2023-03-26T23:31:52.925Z,8.20
2023-03-26T23:34:51.914Z,8.50
2023-03-26T23:37:34.954Z,5.70
2023-03-26T23:40:27.056Z,5.10
2023-03-26T23:43:09.281Z,5.80
2023-03-26T23:46:01.371Z,5.90
2023-03-26T23:48:54.742Z,6.30
2023-03-26T23:51:36.528Z,7.50
2023-03-26T23:54:30.047Z,6.80
2023-03-26T23:57:22.254Z,6.80
